sensor_id;sensor_type;location;lat;lon;timestamp;pressure;altitude;pressure_sealevel;temperature;humidity
57600;BME280;43426;43.594;24.334;2023-06-19T00:00:43;100927.06;;;17.47;100.00
57600;BME280;43426;43.594;24.334;2023-06-19T00:03:09;100957.88;;;17.74;100.00
57600;BME280;43426;43.594;24.334;2023-06-19T00:05:34;100979.28;;;17.84;100.00
57600;BME280;43426;43.594;24.334;2023-06-19T00:07:59;100953.31;;;17.61;100.00
57600;BME280;43426;43.594;24.334;2023-06-19T00:10:25;100950.97;;;17.58;100.00
57600;BME280;43426;43.594;24.334;2023-06-19T00:12:51;100945.72;;;17.57;100.00
57600;BME280;43426;43.594;24.334;2023-06-19T00:15:16;100954.56;;;17.59;100.00
57600;BME280;43426;43.594;24.334;2023-06-19T00:17:42;100958.94;;;17.60;100.00
57600;BME280;43426;43.594;24.334;2023-06-19T00:20:07;100988.72;;;17.75;100.00
57600;BME280;43426;43.594;24.334;2023-06-19T00:22:33;100952.25;;;17.56;100.00
57600;BME280;43426;43.594;24.334;2023-06-19T00:24:59;100982.03;;;17.64;100.00
57600;BME280;43426;43.594;24.334;2023-06-19T00:27:24;100987.91;;;17.61;100.00
57600;BME280;43426;43.594;24.334;2023-06-19T00:29:53;100919.56;;;17.09;100.00
57600;BME280;43426;43.594;24.334;2023-06-19T00:32:18;100965.28;;;17.33;100.00
57600;BME280;43426;43.594;24.334;2023-06-19T00:34:43;100982.06;;;17.37;100.00
57600;BME280;43426;43.594;24.334;2023-06-19T00:37:09;100982.06;;;17.44;100.00
57600;BME280;43426;43.594;24.334;2023-06-19T00:39:35;100970.75;;;17.33;100.00
57600;BME280;43426;43.594;24.334;2023-06-19T00:42:01;100981.84;;;17.39;100.00
57600;BME280;43426;43.594;24.334;2023-06-19T00:44:26;101002.19;;;17.49;100.00
57600;BME280;43426;43.594;24.334;2023-06-19T00:46:57;100997.38;;;17.45;100.00
57600;BME280;43426;43.594;24.334;2023-06-19T00:49:23;100986.47;;;17.38;100.00
57600;BME280;43426;43.594;24.334;2023-06-19T00:51:51;100979.13;;;17.32;100.00
57600;BME280;43426;43.594;24.334;2023-06-19T00:54:17;100964.84;;;17.16;100.00
57600;BME280;43426;43.594;24.334;2023-06-19T00:56:42;101004.09;;;17.35;100.00
57600;BME280;43426;43.594;24.334;2023-06-19T00:59:11;101001.78;;;17.32;100.00
57600;BME280;43426;43.594;24.334;2023-06-19T01:01:39;101003.69;;;17.25;100.00
57600;BME280;43426;43.594;24.334;2023-06-19T01:04:05;101002.44;;;17.21;100.00
57600;BME280;43426;43.594;24.334;2023-06-19T01:06:32;100993.81;;;17.17;100.00
57600;BME280;43426;43.594;24.334;2023-06-19T01:09:05;100997.38;;;17.18;100.00
57600;BME280;43426;43.594;24.334;2023-06-19T01:11:32;100994.22;;;17.14;100.00
57600;BME280;43426;43.594;24.334;2023-06-19T01:13:59;100996.31;;;17.12;100.00
57600;BME280;43426;43.594;24.334;2023-06-19T01:16:26;100994.63;;;17.18;100.00
57600;BME280;43426;43.594;24.334;2023-06-19T01:18:52;101003.25;;;17.22;100.00
57600;BME280;43426;43.594;24.334;2023-06-19T01:21:18;100998.41;;;17.24;100.00
57600;BME280;43426;43.594;24.334;2023-06-19T01:23:44;101002.00;;;17.31;100.00
57600;BME280;43426;43.594;24.334;2023-06-19T01:26:10;101001.78;;;17.26;100.00
57600;BME280;43426;43.594;24.334;2023-06-19T01:28:36;101002.22;;;17.23;100.00
57600;BME280;43426;43.594;24.334;2023-06-19T01:31:02;100999.69;;;17.14;100.00
57600;BME280;43426;43.594;24.334;2023-06-19T01:33:29;100998.41;;;16.97;100.00
57600;BME280;43426;43.594;24.334;2023-06-19T01:35:56;101001.50;;;16.87;100.00
57600;BME280;43426;43.594;24.334;2023-06-19T01:38:22;101003.38;;;16.80;100.00
57600;BME280;43426;43.594;24.334;2023-06-19T01:40:50;101002.69;;;16.71;100.00
57600;BME280;43426;43.594;24.334;2023-06-19T01:43:17;101005.88;;;16.75;100.00
57600;BME280;43426;43.594;24.334;2023-06-19T01:45:43;101012.59;;;16.85;100.00
57600;BME280;43426;43.594;24.334;2023-06-19T01:48:08;101010.50;;;16.88;100.00
57600;BME280;43426;43.594;24.334;2023-06-19T01:50:33;101003.59;;;16.85;100.00
57600;BME280;43426;43.594;24.334;2023-06-19T01:52:59;101002.75;;;16.84;100.00
57600;BME280;43426;43.594;24.334;2023-06-19T01:55:24;101006.72;;;16.82;100.00
57600;BME280;43426;43.594;24.334;2023-06-19T01:57:49;101005.03;;;16.74;100.00
57600;BME280;43426;43.594;24.334;2023-06-19T02:00:15;101010.47;;;16.67;100.00
57600;BME280;43426;43.594;24.334;2023-06-19T02:02:40;101008.75;;;16.60;100.00
57600;BME280;43426;43.594;24.334;2023-06-19T02:05:06;101004.97;;;16.61;100.00
57600;BME280;43426;43.594;24.334;2023-06-19T02:07:31;101007.28;;;16.64;100.00
57600;BME280;43426;43.594;24.334;2023-06-19T02:09:56;101000.38;;;16.61;100.00
57600;BME280;43426;43.594;24.334;2023-06-19T02:12:22;101005.38;;;16.51;100.00
57600;BME280;43426;43.594;24.334;2023-06-19T02:14:47;101004.47;;;16.37;100.00
57600;BME280;43426;43.594;24.334;2023-06-19T02:17:12;101006.09;;;16.25;100.00
57600;BME280;43426;43.594;24.334;2023-06-19T02:19:37;101014.50;;;16.30;100.00
57600;BME280;43426;43.594;24.334;2023-06-19T02:22:03;101024.59;;;16.36;100.00
57600;BME280;43426;43.594;24.334;2023-06-19T02:24:28;101025.63;;;16.35;100.00
57600;BME280;43426;43.594;24.334;2023-06-19T02:26:53;101022.91;;;16.35;100.00
57600;BME280;43426;43.594;24.334;2023-06-19T02:29:19;101023.34;;;16.39;100.00
57600;BME280;43426;43.594;24.334;2023-06-19T02:31:45;101021.28;;;16.41;100.00
57600;BME280;43426;43.594;24.334;2023-06-19T02:34:10;101019.59;;;16.40;100.00
57600;BME280;43426;43.594;24.334;2023-06-19T02:36:35;101021.28;;;16.41;100.00
57600;BME280;43426;43.594;24.334;2023-06-19T02:39:01;101026.28;;;16.37;100.00
57600;BME280;43426;43.594;24.334;2023-06-19T02:41:26;101022.91;;;16.35;100.00
57600;BME280;43426;43.594;24.334;2023-06-19T02:43:51;101025.84;;;16.40;100.00
57600;BME280;43426;43.594;24.334;2023-06-19T02:46:17;101032.53;;;16.38;100.00
57600;BME280;43426;43.594;24.334;2023-06-19T02:48:42;101030.47;;;16.40;100.00
57600;BME280;43426;43.594;24.334;2023-06-19T02:51:08;101031.09;;;16.42;100.00
57600;BME280;43426;43.594;24.334;2023-06-19T02:53:33;101036.38;;;16.50;100.00
57600;BME280;43426;43.594;24.334;2023-06-19T02:55:58;101031.13;;;16.48;100.00
57600;BME280;43426;43.594;24.334;2023-06-19T02:58:24;101038.88;;;16.51;100.00
57600;BME280;43426;43.594;24.334;2023-06-19T03:00:50;101042.88;;;16.56;100.00
57600;BME280;43426;43.594;24.334;2023-06-19T03:03:15;101040.63;;;16.59;100.00
57600;BME280;43426;43.594;24.334;2023-06-19T03:05:41;101041.06;;;16.69;100.00
57600;BME280;43426;43.594;24.334;2023-06-19T03:08:06;101041.88;;;16.63;100.00
57600;BME280;43426;43.594;24.334;2023-06-19T03:10:32;101039.41;;;16.68;100.00
57600;BME280;43426;43.594;24.334;2023-06-19T03:12:57;101036.03;;;16.73;100.00
57600;BME280;43426;43.594;24.334;2023-06-19T03:15:24;101034.59;;;16.77;100.00
57600;BME280;43426;43.594;24.334;2023-06-19T03:17:49;101031.88;;;16.77;100.00
57600;BME280;43426;43.594;24.334;2023-06-19T03:20:14;101034.59;;;16.77;100.00
57600;BME280;43426;43.594;24.334;2023-06-19T03:22:40;101029.00;;;16.92;100.00
57600;BME280;43426;43.594;24.334;2023-06-19T03:25:06;101026.94;;;17.01;100.00
57600;BME280;43426;43.594;24.334;2023-06-19T03:27:31;101029.00;;;16.92;100.00
57600;BME280;43426;43.594;24.334;2023-06-19T03:29:56;101032.78;;;16.91;100.00
57600;BME280;43426;43.594;24.334;2023-06-19T03:32:22;101037.56;;;16.82;100.00
57600;BME280;43426;43.594;24.334;2023-06-19T03:34:47;101033.50;;;16.65;100.00
57600;BME280;43426;43.594;24.334;2023-06-19T03:37:13;101041.44;;;16.60;100.00
57600;BME280;43426;43.594;24.334;2023-06-19T03:39:38;101039.38;;;16.62;100.00
57600;BME280;43426;43.594;24.334;2023-06-19T03:42:03;101042.75;;;16.71;100.00
57600;BME280;43426;43.594;24.334;2023-06-19T03:44:29;101043.41;;;16.86;100.00
57600;BME280;43426;43.594;24.334;2023-06-19T03:46:54;101042.84;;;16.97;100.00
57600;BME280;43426;43.594;24.334;2023-06-19T03:49:19;101037.19;;;17.06;100.00
57600;BME280;43426;43.594;24.334;2023-06-19T03:51:45;101038.06;;;17.19;100.00
57600;BME280;43426;43.594;24.334;2023-06-19T03:54:10;101040.78;;;17.19;100.00
57600;BME280;43426;43.594;24.334;2023-06-19T03:56:35;101042.06;;;17.30;100.00
57600;BME280;43426;43.594;24.334;2023-06-19T03:59:00;101037.44;;;17.38;100.00
57600;BME280;43426;43.594;24.334;2023-06-19T04:01:26;101038.50;;;17.30;100.00
57600;BME280;43426;43.594;24.334;2023-06-19T04:03:51;101035.38;;;17.46;100.00
57600;BME280;43426;43.594;24.334;2023-06-19T04:06:16;101038.28;;;17.31;100.00
57600;BME280;43426;43.594;24.334;2023-06-19T04:08:42;101037.03;;;17.27;100.00
57600;BME280;43426;43.594;24.334;2023-06-19T04:11:07;101032.63;;;17.46;100.00
57600;BME280;43426;43.594;24.334;2023-06-19T04:13:33;101032.22;;;17.49;100.00
57600;BME280;43426;43.594;24.334;2023-06-19T04:15:58;101035.38;;;17.53;100.00
57600;BME280;43426;43.594;24.334;2023-06-19T04:18:23;101033.47;;;17.53;100.00
57600;BME280;43426;43.594;24.334;2023-06-19T04:20:48;101037.25;;;17.66;100.00
57600;BME280;43426;43.594;24.334;2023-06-19T04:23:14;101034.09;;;17.82;100.00
57600;BME280;43426;43.594;24.334;2023-06-19T04:25:39;101030.50;;;17.88;100.00
57600;BME280;43426;43.594;24.334;2023-06-19T04:28:04;101034.09;;;17.82;100.00
57600;BME280;43426;43.594;24.334;2023-06-19T04:30:30;101040.81;;;17.86;100.00
57600;BME280;43426;43.594;24.334;2023-06-19T04:32:57;101042.69;;;17.86;100.00
57600;BME280;43426;43.594;24.334;2023-06-19T04:35:22;101041.41;;;17.88;100.00
57600;BME280;43426;43.594;24.334;2023-06-19T04:37:48;101036.56;;;18.17;98.95
57600;BME280;43426;43.594;24.334;2023-06-19T04:40:14;101042.44;;;18.21;99.22
57600;BME280;43426;43.594;24.334;2023-06-19T04:42:39;101048.28;;;18.31;99.42
57600;BME280;43426;43.594;24.334;2023-06-19T04:45:04;101043.59;;;18.45;98.22
57600;BME280;43426;43.594;24.334;2023-06-19T04:47:32;101039.78;;;18.60;97.36
57600;BME280;43426;43.594;24.334;2023-06-19T04:49:58;101048.41;;;18.57;99.01
57600;BME280;43426;43.594;24.334;2023-06-19T04:52:24;101040.34;;;18.75;96.06
57600;BME280;43426;43.594;24.334;2023-06-19T04:54:49;101044.94;;;18.75;95.76
57600;BME280;43426;43.594;24.334;2023-06-19T04:57:14;101046.03;;;18.74;96.35
57600;BME280;43426;43.594;24.334;2023-06-19T04:59:41;101051.47;;;18.80;96.28
57600;BME280;43426;43.594;24.334;2023-06-19T05:02:06;101052.56;;;19.43;92.41
57600;BME280;43426;43.594;24.334;2023-06-19T05:04:32;101062.78;;;19.54;91.86
57600;BME280;43426;43.594;24.334;2023-06-19T05:06:58;101055.63;;;19.53;92.57
57600;BME280;43426;43.594;24.334;2023-06-19T05:09:23;101057.84;;;19.63;92.64
57600;BME280;43426;43.594;24.334;2023-06-19T05:11:48;101062.16;;;19.78;90.29
57600;BME280;43426;43.594;24.334;2023-06-19T05:14:13;101056.16;;;19.69;90.04
57600;BME280;43426;43.594;24.334;2023-06-19T05:16:39;101057.75;;;19.77;90.50
57600;BME280;43426;43.594;24.334;2023-06-19T05:19:04;101056.50;;;19.98;89.32
57600;BME280;43426;43.594;24.334;2023-06-19T05:21:30;101058.59;;;20.21;87.92
57600;BME280;43426;43.594;24.334;2023-06-19T05:23:55;101058.75;;;20.63;86.41
57600;BME280;43426;43.594;24.334;2023-06-19T05:26:21;101059.00;;;20.92;81.78
57600;BME280;43426;43.594;24.334;2023-06-19T05:28:47;101054.88;;;21.01;83.29
57600;BME280;43426;43.594;24.334;2023-06-19T05:31:13;101059.03;;;21.34;81.24
57600;BME280;43426;43.594;24.334;2023-06-19T05:33:38;101059.72;;;21.72;77.98
57600;BME280;43426;43.594;24.334;2023-06-19T05:36:03;101051.59;;;21.89;79.09
57600;BME280;43426;43.594;24.334;2023-06-19T05:38:29;101057.19;;;22.18;80.40
57600;BME280;43426;43.594;24.334;2023-06-19T05:40:56;101054.94;;;22.38;76.65
57600;BME280;43426;43.594;24.334;2023-06-19T05:43:21;101058.78;;;22.66;76.20
57600;BME280;43426;43.594;24.334;2023-06-19T05:45:47;101052.19;;;22.79;75.36
57600;BME280;43426;43.594;24.334;2023-06-19T05:48:12;101059.94;;;22.82;76.65
57600;BME280;43426;43.594;24.334;2023-06-19T05:50:38;101058.75;;;23.07;75.64
57600;BME280;43426;43.594;24.334;2023-06-19T05:53:03;101064.06;;;23.25;74.80
57600;BME280;43426;43.594;24.334;2023-06-19T05:55:28;101060.91;;;23.51;74.55
57600;BME280;43426;43.594;24.334;2023-06-19T05:57:55;101061.16;;;24.00;70.19
57600;BME280;43426;43.594;24.334;2023-06-19T06:00:20;101058.81;;;24.09;72.14
57600;BME280;43426;43.594;24.334;2023-06-19T06:02:45;101062.44;;;24.31;70.59
57600;BME280;43426;43.594;24.334;2023-06-19T06:05:11;101064.53;;;24.63;69.46
57600;BME280;43426;43.594;24.334;2023-06-19T06:07:36;101057.38;;;24.90;69.59
57600;BME280;43426;43.594;24.334;2023-06-19T06:10:01;101062.78;;;25.07;68.31
57600;BME280;43426;43.594;24.334;2023-06-19T06:12:27;101064.28;;;25.20;65.98
57600;BME280;43426;43.594;24.334;2023-06-19T06:14:52;101066.28;;;25.24;67.93
57600;BME280;43426;43.594;24.334;2023-06-19T06:17:17;101067.63;;;25.22;64.75
57600;BME280;43426;43.594;24.334;2023-06-19T06:19:43;101072.06;;;25.23;63.78
57600;BME280;43426;43.594;24.334;2023-06-19T06:22:08;101059.41;;;25.27;65.54
57600;BME280;43426;43.594;24.334;2023-06-19T06:24:33;101065.47;;;25.56;64.23
57600;BME280;43426;43.594;24.334;2023-06-19T06:26:58;101074.66;;;25.62;62.03
57600;BME280;43426;43.594;24.334;2023-06-19T06:29:24;101064.56;;;25.83;61.78
57600;BME280;43426;43.594;24.334;2023-06-19T06:31:49;101071.00;;;25.94;61.39
57600;BME280;43426;43.594;24.334;2023-06-19T06:34:17;101076.22;;;25.90;60.34
57600;BME280;43426;43.594;24.334;2023-06-19T06:36:43;101069.00;;;25.84;61.11
57600;BME280;43426;43.594;24.334;2023-06-19T06:39:08;101072.44;;;26.02;60.05
57600;BME280;43426;43.594;24.334;2023-06-19T06:41:33;101066.59;;;25.98;62.12
57600;BME280;43426;43.594;24.334;2023-06-19T06:43:58;101073.31;;;26.02;60.23
57600;BME280;43426;43.594;24.334;2023-06-19T06:46:24;101066.25;;;26.27;58.20
57600;BME280;43426;43.594;24.334;2023-06-19T06:48:49;101066.56;;;26.36;59.34
57600;BME280;43426;43.594;24.334;2023-06-19T06:51:15;101072.13;;;26.41;61.37
57600;BME280;43426;43.594;24.334;2023-06-19T06:53:40;101067.22;;;26.53;57.48
57600;BME280;43426;43.594;24.334;2023-06-19T06:56:05;101068.91;;;26.64;58.71
57600;BME280;43426;43.594;24.334;2023-06-19T06:58:31;101068.44;;;26.83;57.38
57600;BME280;43426;43.594;24.334;2023-06-19T07:00:56;101069.81;;;26.85;57.87
57600;BME280;43426;43.594;24.334;2023-06-19T07:03:21;101067.66;;;27.13;56.46
57600;BME280;43426;43.594;24.334;2023-06-19T07:05:47;101068.19;;;27.05;57.70
57600;BME280;43426;43.594;24.334;2023-06-19T07:08:12;101064.66;;;27.25;57.87
57600;BME280;43426;43.594;24.334;2023-06-19T07:10:38;101068.28;;;27.57;56.44
57600;BME280;43426;43.594;24.334;2023-06-19T07:13:03;101065.50;;;27.46;56.31
57600;BME280;43426;43.594;24.334;2023-06-19T07:15:28;101066.91;;;27.49;56.61
57600;BME280;43426;43.594;24.334;2023-06-19T07:17:54;101076.88;;;27.45;56.45
57600;BME280;43426;43.594;24.334;2023-06-19T07:20:19;101073.28;;;27.55;57.51
57600;BME280;43426;43.594;24.334;2023-06-19T07:22:44;101066.91;;;27.69;56.34
57600;BME280;43426;43.594;24.334;2023-06-19T07:25:10;101069.38;;;27.71;54.53
57600;BME280;43426;43.594;24.334;2023-06-19T07:27:36;101064.97;;;27.55;55.20
57600;BME280;43426;43.594;24.334;2023-06-19T07:30:01;101072.69;;;27.73;55.39
57600;BME280;43426;43.594;24.334;2023-06-19T07:32:27;101069.38;;;27.86;53.80
57600;BME280;43426;43.594;24.334;2023-06-19T07:34:52;101074.63;;;27.83;53.07
57600;BME280;43426;43.594;24.334;2023-06-19T07:37:18;101069.06;;;28.09;53.43
57600;BME280;43426;43.594;24.334;2023-06-19T07:39:47;101072.91;;;28.23;53.25
57600;BME280;43426;43.594;24.334;2023-06-19T07:42:15;101072.31;;;28.31;52.11
57600;BME280;43426;43.594;24.334;2023-06-19T07:44:41;101066.69;;;28.52;53.42
57600;BME280;43426;43.594;24.334;2023-06-19T07:47:07;101078.25;;;28.80;49.65
57600;BME280;43426;43.594;24.334;2023-06-19T07:49:33;101072.25;;;28.57;47.99
57600;BME280;43426;43.594;24.334;2023-06-19T07:51:58;101077.34;;;28.34;51.17
57600;BME280;43426;43.594;24.334;2023-06-19T07:54:23;101079.53;;;28.43;48.05
57600;BME280;43426;43.594;24.334;2023-06-19T07:56:48;101079.59;;;28.22;50.42
57600;BME280;43426;43.594;24.334;2023-06-19T07:59:14;101077.13;;;28.10;49.95
57600;BME280;43426;43.594;24.334;2023-06-19T08:01:39;101080.16;;;28.09;50.29
57600;BME280;43426;43.594;24.334;2023-06-19T08:04:06;101076.28;;;28.05;50.97
57600;BME280;43426;43.594;24.334;2023-06-19T08:06:31;101089.56;;;28.28;50.05
57600;BME280;43426;43.594;24.334;2023-06-19T08:08:57;101083.13;;;28.38;49.96
57600;BME280;43426;43.594;24.334;2023-06-19T08:11:22;101075.06;;;28.47;52.20
57600;BME280;43426;43.594;24.334;2023-06-19T08:13:48;101085.09;;;28.98;50.79
57600;BME280;43426;43.594;24.334;2023-06-19T08:16:13;101093.59;;;29.17;48.34
57600;BME280;43426;43.594;24.334;2023-06-19T08:18:38;101080.91;;;29.05;47.18
57600;BME280;43426;43.594;24.334;2023-06-19T08:21:03;101088.13;;;29.07;49.79
57600;BME280;43426;43.594;24.334;2023-06-19T08:23:29;101086.66;;;29.14;48.22
57600;BME280;43426;43.594;24.334;2023-06-19T08:25:54;101098.28;;;29.27;49.76
57600;BME280;43426;43.594;24.334;2023-06-19T08:28:20;101079.63;;;29.32;49.48
57600;BME280;43426;43.594;24.334;2023-06-19T08:30:45;101089.47;;;29.54;48.95
57600;BME280;43426;43.594;24.334;2023-06-19T08:33:10;101095.34;;;29.47;46.84
57600;BME280;43426;43.594;24.334;2023-06-19T08:35:36;101096.84;;;29.34;45.67
57600;BME280;43426;43.594;24.334;2023-06-19T08:38:02;101087.34;;;29.41;46.57
57600;BME280;43426;43.594;24.334;2023-06-19T08:40:27;101089.41;;;29.25;44.57
57600;BME280;43426;43.594;24.334;2023-06-19T08:42:52;101093.88;;;29.20;45.27
57600;BME280;43426;43.594;24.334;2023-06-19T08:45:18;101090.00;;;29.56;45.63
57600;BME280;43426;43.594;24.334;2023-06-19T08:47:46;101082.34;;;29.72;42.72
57600;BME280;43426;43.594;24.334;2023-06-19T08:50:11;101092.00;;;29.50;43.91
57600;BME280;43426;43.594;24.334;2023-06-19T08:52:37;101095.50;;;29.61;44.69
57600;BME280;43426;43.594;24.334;2023-06-19T08:55:02;101099.63;;;29.34;44.67
57600;BME280;43426;43.594;24.334;2023-06-19T08:57:34;101080.78;;;29.26;46.71
57600;BME280;43426;43.594;24.334;2023-06-19T08:59:59;101089.00;;;29.42;46.42
57600;BME280;43426;43.594;24.334;2023-06-19T09:02:25;101093.81;;;29.65;45.89
57600;BME280;43426;43.594;24.334;2023-06-19T09:04:52;101095.72;;;29.70;46.20
57600;BME280;43426;43.594;24.334;2023-06-19T09:07:17;101100.78;;;29.97;46.27
57600;BME280;43426;43.594;24.334;2023-06-19T09:09:45;101099.03;;;30.31;48.16
57600;BME280;43426;43.594;24.334;2023-06-19T09:12:12;101093.56;;;30.50;44.89
57600;BME280;43426;43.594;24.334;2023-06-19T09:14:39;101085.66;;;30.57;45.45
57600;BME280;43426;43.594;24.334;2023-06-19T09:17:06;101094.41;;;30.69;44.16
57600;BME280;43426;43.594;24.334;2023-06-19T09:19:32;101097.28;;;30.64;46.56
57600;BME280;43426;43.594;24.334;2023-06-19T09:22:03;101086.22;;;30.78;44.37
57600;BME280;43426;43.594;24.334;2023-06-19T09:27:10;101079.56;;;31.17;45.35
57600;BME280;43426;43.594;24.334;2023-06-19T09:29:39;101082.78;;;31.44;44.57
57600;BME280;43426;43.594;24.334;2023-06-19T09:32:14;101079.91;;;31.49;44.48
57600;BME280;43426;43.594;24.334;2023-06-19T09:34:40;101084.19;;;31.60;43.50
57600;BME280;43426;43.594;24.334;2023-06-19T09:37:05;101082.16;;;31.47;42.87
57600;BME280;43426;43.594;24.334;2023-06-19T09:39:31;101096.97;;;31.28;43.74
57600;BME280;43426;43.594;24.334;2023-06-19T09:41:56;101089.34;;;31.15;45.69
57600;BME280;43426;43.594;24.334;2023-06-19T09:44:24;101082.03;;;31.38;45.41
57600;BME280;43426;43.594;24.334;2023-06-19T09:46:50;101092.50;;;31.65;45.91
57600;BME280;43426;43.594;24.334;2023-06-19T09:49:17;101087.66;;;31.52;42.22
57600;BME280;43426;43.594;24.334;2023-06-19T09:51:43;101080.09;;;31.52;42.81
57600;BME280;43426;43.594;24.334;2023-06-19T09:54:09;101089.63;;;31.84;42.99
57600;BME280;43426;43.594;24.334;2023-06-19T09:56:35;101097.03;;;31.61;43.34
57600;BME280;43426;43.594;24.334;2023-06-19T09:59:01;101089.56;;;30.99;44.92
57600;BME280;43426;43.594;24.334;2023-06-19T10:01:29;101092.44;;;30.51;45.47
57600;BME280;43426;43.594;24.334;2023-06-19T10:04:06;101090.16;;;30.77;45.65
57600;BME280;43426;43.594;24.334;2023-06-19T10:06:32;101076.41;;;31.24;45.85
57600;BME280;43426;43.594;24.334;2023-06-19T10:09:05;101075.34;;;31.20;45.39
57600;BME280;43426;43.594;24.334;2023-06-19T10:11:43;101084.81;;;31.19;44.00
57600;BME280;43426;43.594;24.334;2023-06-19T10:14:09;101073.34;;;31.39;44.22
57600;BME280;43426;43.594;24.334;2023-06-19T10:16:34;101071.63;;;31.77;43.58
57600;BME280;43426;43.594;24.334;2023-06-19T10:18:59;101080.75;;;31.96;42.15
57600;BME280;43426;43.594;24.334;2023-06-19T10:21:24;101076.84;;;32.11;43.83
57600;BME280;43426;43.594;24.334;2023-06-19T10:23:53;101067.31;;;31.98;42.27
57600;BME280;43426;43.594;24.334;2023-06-19T10:26:19;101072.53;;;31.72;40.78
57600;BME280;43426;43.594;24.334;2023-06-19T10:28:46;101065.19;;;31.62;42.33
57600;BME280;43426;43.594;24.334;2023-06-19T10:31:13;101048.88;;;31.69;41.17
57600;BME280;43426;43.594;24.334;2023-06-19T10:33:38;101051.41;;;31.99;40.78
57600;BME280;43426;43.594;24.334;2023-06-19T10:36:19;101052.22;;;31.85;39.00
57600;BME280;43426;43.594;24.334;2023-06-19T10:38:46;101048.28;;;31.86;39.28
57600;BME280;43426;43.594;24.334;2023-06-19T10:41:15;101049.97;;;32.01;37.83
57600;BME280;43426;43.594;24.334;2023-06-19T10:43:41;101048.34;;;32.28;38.23
57600;BME280;43426;43.594;24.334;2023-06-19T10:46:06;101039.97;;;32.28;36.82
57600;BME280;43426;43.594;24.334;2023-06-19T10:48:31;101038.19;;;32.04;36.25
57600;BME280;43426;43.594;24.334;2023-06-19T10:50:57;101040.53;;;31.50;38.33
57600;BME280;43426;43.594;24.334;2023-06-19T10:53:25;101038.97;;;31.44;36.96
57600;BME280;43426;43.594;24.334;2023-06-19T10:55:54;101034.13;;;31.83;35.90
57600;BME280;43426;43.594;24.334;2023-06-19T10:58:20;101037.75;;;31.97;35.70
57600;BME280;43426;43.594;24.334;2023-06-19T11:00:46;101030.31;;;31.92;36.93
57600;BME280;43426;43.594;24.334;2023-06-19T11:03:11;101041.31;;;32.17;35.52
57600;BME280;43426;43.594;24.334;2023-06-19T11:05:37;101035.09;;;32.34;34.81
57600;BME280;43426;43.594;24.334;2023-06-19T11:08:08;101040.91;;;32.23;35.10
57600;BME280;43426;43.594;24.334;2023-06-19T11:10:33;101035.16;;;31.87;35.90
57600;BME280;43426;43.594;24.334;2023-06-19T11:12:59;101026.69;;;31.78;36.41
57600;BME280;43426;43.594;24.334;2023-06-19T11:15:28;101033.94;;;32.07;34.82
57600;BME280;43426;43.594;24.334;2023-06-19T11:17:53;101033.44;;;32.33;34.21
57600;BME280;43426;43.594;24.334;2023-06-19T11:20:19;101031.75;;;32.32;34.26
57600;BME280;43426;43.594;24.334;2023-06-19T11:22:44;101029.38;;;32.53;37.07
57600;BME280;43426;43.594;24.334;2023-06-19T11:25:09;101031.53;;;32.70;34.74
57600;BME280;43426;43.594;24.334;2023-06-19T11:27:36;101024.50;;;32.72;34.63
57600;BME280;43426;43.594;24.334;2023-06-19T11:30:03;101032.78;;;32.78;35.28
57600;BME280;43426;43.594;24.334;2023-06-19T11:32:35;101035.91;;;32.34;33.65
57600;BME280;43426;43.594;24.334;2023-06-19T11:35:06;101024.28;;;31.71;33.96
57600;BME280;43426;43.594;24.334;2023-06-19T11:37:32;101023.50;;;31.85;34.66
57600;BME280;43426;43.594;24.334;2023-06-19T11:39:58;101013.97;;;32.14;35.65
57600;BME280;43426;43.594;24.334;2023-06-19T11:42:24;101020.09;;;32.30;33.58
57600;BME280;43426;43.594;24.334;2023-06-19T11:44:56;101015.63;;;32.42;34.32
57600;BME280;43426;43.594;24.334;2023-06-19T11:47:22;101006.16;;;32.66;33.79
57600;BME280;43426;43.594;24.334;2023-06-19T11:49:48;101019.88;;;33.13;32.89
57600;BME280;43426;43.594;24.334;2023-06-19T11:52:13;101017.47;;;33.20;32.15
57600;BME280;43426;43.594;24.334;2023-06-19T11:54:38;101010.97;;;33.25;31.04
57600;BME280;43426;43.594;24.334;2023-06-19T11:57:04;101003.97;;;33.36;30.02
57600;BME280;43426;43.594;24.334;2023-06-19T11:59:29;101000.34;;;33.67;31.83
57600;BME280;43426;43.594;24.334;2023-06-19T12:01:55;100996.03;;;33.61;31.08
57600;BME280;43426;43.594;24.334;2023-06-19T12:04:23;100998.84;;;33.61;30.73
57600;BME280;43426;43.594;24.334;2023-06-19T12:06:48;100991.25;;;33.84;29.82
57600;BME280;43426;43.594;24.334;2023-06-19T12:09:13;100984.78;;;33.84;29.60
57600;BME280;43426;43.594;24.334;2023-06-19T12:11:39;100990.72;;;33.82;30.50
57600;BME280;43426;43.594;24.334;2023-06-19T12:14:04;100982.53;;;33.63;28.06
57600;BME280;43426;43.594;24.334;2023-06-19T12:16:29;100983.97;;;33.52;29.88
57600;BME280;43426;43.594;24.334;2023-06-19T12:18:55;100986.00;;;33.69;29.74
57600;BME280;43426;43.594;24.334;2023-06-19T12:21:20;100978.38;;;33.52;31.65
57600;BME280;43426;43.594;24.334;2023-06-19T12:23:45;100973.59;;;33.84;30.46
57600;BME280;43426;43.594;24.334;2023-06-19T12:26:11;100978.13;;;34.02;30.30
57600;BME280;43426;43.594;24.334;2023-06-19T12:28:36;100976.19;;;33.40;29.77
57600;BME280;43426;43.594;24.334;2023-06-19T12:31:01;100975.25;;;32.63;30.73